sensor_id;sensor_type;location;lat;lon;timestamp;pressure;altitude;pressure_sealevel;temperature;humidity
67931;BME280;63902;52.000;5.954;2022-11-21T00:00:56;100201.94;;;0.65;100.00
67931;BME280;63902;52.000;5.954;2022-11-21T00:01:57;100207.13;;;0.66;100.00
67931;BME280;63902;52.000;5.954;2022-11-21T00:02:58;100201.06;;;0.66;100.00
67931;BME280;63902;52.000;5.954;2022-11-21T00:03:58;100198.44;;;0.68;100.00
67931;BME280;63902;52.000;5.954;2022-11-21T00:04:59;100203.63;;;0.69;100.00
67931;BME280;63902;52.000;5.954;2022-11-21T00:06:02;100201.03;;;0.71;100.00
67931;BME280;63902;52.000;5.954;2022-11-21T00:07:02;100201.03;;;0.71;100.00
67931;BME280;63902;52.000;5.954;2022-11-21T00:08:03;100201.03;;;0.71;100.00
67931;BME280;63902;52.000;5.954;2022-11-21T00:09:03;100196.66;;;0.70;100.00
67931;BME280;63902;52.000;5.954;2022-11-21T00:10:04;100199.31;;;0.66;100.00
67931;BME280;63902;52.000;5.954;2022-11-21T00:11:05;100210.59;;;0.70;100.00
67931;BME280;63902;52.000;5.954;2022-11-21T00:12:06;100204.50;;;0.70;100.00
67931;BME280;63902;52.000;5.954;2022-11-21T00:13:12;100201.88;;;0.70;100.00
67931;BME280;63902;52.000;5.954;2022-11-21T00:14:13;100198.41;;;0.69;100.00
67931;BME280;63902;52.000;5.954;2022-11-21T00:15:14;100201.06;;;0.68;100.00
67931;BME280;63902;52.000;5.954;2022-11-21T00:16:16;100191.47;;;0.68;100.00
67931;BME280;63902;52.000;5.954;2022-11-21T00:17:16;100197.56;;;0.69;100.00
67931;BME280;63902;52.000;5.954;2022-11-21T00:18:17;100203.66;;;0.68;100.00
67931;BME280;63902;52.000;5.954;2022-11-21T00:19:17;100194.13;;;0.65;100.00
67931;BME280;63902;52.000;5.954;2022-11-21T00:20:19;100193.25;;;0.61;100.00
67931;BME280;63902;52.000;5.954;2022-11-21T00:21:20;100200.22;;;0.62;100.00
67931;BME280;63902;52.000;5.954;2022-11-21T00:22:20;100201.09;;;0.63;100.00
67931;BME280;63902;52.000;5.954;2022-11-21T00:23:21;100198.47;;;0.61;100.00
67931;BME280;63902;52.000;5.954;2022-11-21T00:24:21;100205.47;;;0.61;100.00
67931;BME280;63902;52.000;5.954;2022-11-21T00:25:22;100209.81;;;0.62;100.00
67931;BME280;63902;52.000;5.954;2022-11-21T00:26:22;100202.84;;;0.62;100.00
67931;BME280;63902;52.000;5.954;2022-11-21T00:27:23;100205.47;;;0.61;100.00
67931;BME280;63902;52.000;5.954;2022-11-21T00:28:25;100202.84;;;0.62;100.00
67931;BME280;63902;52.000;5.954;2022-11-21T00:29:25;100206.31;;;0.64;100.00
67931;BME280;63902;52.000;5.954;2022-11-21T00:30:26;100202.81;;;0.64;100.00
67931;BME280;63902;52.000;5.954;2022-11-21T00:31:26;100204.56;;;0.63;100.00
67931;BME280;63902;52.000;5.954;2022-11-21T00:32:27;100201.09;;;0.61;100.00
67931;BME280;63902;52.000;5.954;2022-11-21T00:33:27;100198.50;;;0.60;100.00
67931;BME280;63902;52.000;5.954;2022-11-21T00:34:28;100212.38;;;0.65;100.00
67931;BME280;63902;52.000;5.954;2022-11-21T00:35:29;100213.25;;;0.65;100.00
67931;BME280;63902;52.000;5.954;2022-11-21T00:36:30;100208.03;;;0.64;100.00
67931;BME280;63902;52.000;5.954;2022-11-21T00:37:30;100200.19;;;0.64;100.00
67931;BME280;63902;52.000;5.954;2022-11-21T00:38:31;100197.59;;;0.65;100.00
67931;BME280;63902;52.000;5.954;2022-11-21T00:39:31;100199.31;;;0.66;100.00
67931;BME280;63902;52.000;5.954;2022-11-21T00:40:32;100188.03;;;0.63;100.00
67931;BME280;63902;52.000;5.954;2022-11-21T00:41:32;100197.59;;;0.65;100.00
67931;BME280;63902;52.000;5.954;2022-11-21T00:42:33;100191.53;;;0.62;100.00
67931;BME280;63902;52.000;5.954;2022-11-21T00:43:34;100200.16;;;0.67;100.00
67931;BME280;63902;52.000;5.954;2022-11-21T00:44:35;100201.06;;;0.68;100.00
67931;BME280;63902;52.000;5.954;2022-11-21T00:45:35;100201.06;;;0.68;100.00
67931;BME280;63902;52.000;5.954;2022-11-21T00:46:36;100200.16;;;0.67;100.00
67931;BME280;63902;52.000;5.954;2022-11-21T00:47:36;100201.06;;;0.68;100.00
67931;BME280;63902;52.000;5.954;2022-11-21T00:48:37;100196.69;;;0.66;100.00
67931;BME280;63902;52.000;5.954;2022-11-21T00:49:37;100209.75;;;0.68;100.00
67931;BME280;63902;52.000;5.954;2022-11-21T00:50:38;100206.28;;;0.66;100.00
67931;BME280;63902;52.000;5.954;2022-11-21T00:51:38;100195.91;;;0.58;100.00
67931;BME280;63902;52.000;5.954;2022-11-21T00:52:38;100207.16;;;0.63;100.00
67931;BME280;63902;52.000;5.954;2022-11-21T00:53:39;100209.78;;;0.63;100.00
67931;BME280;63902;52.000;5.954;2022-11-21T00:54:40;100215.00;;;0.63;100.00
67931;BME280;63902;52.000;5.954;2022-11-21T00:55:41;100215.84;;;0.64;100.00
67931;BME280;63902;52.000;5.954;2022-11-21T00:56:41;100208.91;;;0.61;100.00
67931;BME280;63902;52.000;5.954;2022-11-21T00:57:41;100213.25;;;0.65;100.00
67931;BME280;63902;52.000;5.954;2022-11-21T00:58:43;100213.22;;;0.67;100.00
67931;BME280;63902;52.000;5.954;2022-11-21T00:59:44;100204.53;;;0.66;100.00
67931;BME280;63902;52.000;5.954;2022-11-21T01:00:44;100210.59;;;0.70;100.00
67931;BME280;63902;52.000;5.954;2022-11-21T01:01:45;100211.47;;;0.71;100.00
67931;BME280;63902;52.000;5.954;2022-11-21T01:02:45;100214.91;;;0.73;100.00
67931;BME280;63902;52.000;5.954;2022-11-21T01:03:45;100212.28;;;0.73;100.00
67931;BME280;63902;52.000;5.954;2022-11-21T01:04:46;100215.78;;;0.72;100.00
67931;BME280;63902;52.000;5.954;2022-11-21T01:05:46;100213.22;;;0.70;100.00
67931;BME280;63902;52.000;5.954;2022-11-21T01:06:47;100215.81;;;0.70;100.00
67931;BME280;63902;52.000;5.954;2022-11-21T01:07:47;100208.91;;;0.63;100.00
67931;BME280;63902;52.000;5.954;2022-11-21T01:08:48;100224.50;;;0.69;100.00
67931;BME280;63902;52.000;5.954;2022-11-21T01:09:48;100221.94;;;0.68;100.00
67931;BME280;63902;52.000;5.954;2022-11-21T01:10:49;100228.03;;;0.65;100.00
67931;BME280;63902;52.000;5.954;2022-11-21T01:11:49;100225.41;;;0.66;100.00
67931;BME280;63902;52.000;5.954;2022-11-21T01:12:50;100225.41;;;0.66;100.00
67931;BME280;63902;52.000;5.954;2022-11-21T01:13:52;100228.88;;;0.67;100.00
67931;BME280;63902;52.000;5.954;2022-11-21T01:14:52;100220.19;;;0.66;100.00
67931;BME280;63902;52.000;5.954;2022-11-21T01:15:53;100227.16;;;0.68;100.00
67931;BME280;63902;52.000;5.954;2022-11-21T01:16:53;100233.19;;;0.70;100.00
67931;BME280;63902;52.000;5.954;2022-11-21T01:17:54;100230.59;;;0.70;100.00
67931;BME280;63902;52.000;5.954;2022-11-21T01:18:55;100223.66;;;0.69;100.00
67931;BME280;63902;52.000;5.954;2022-11-21T01:19:56;100227.16;;;0.68;100.00
67931;BME280;63902;52.000;5.954;2022-11-21T01:20:58;100221.94;;;0.68;100.00
67931;BME280;63902;52.000;5.954;2022-11-21T01:21:59;100225.41;;;0.66;100.00
67931;BME280;63902;52.000;5.954;2022-11-21T01:22:59;100221.03;;;0.67;100.00
67931;BME280;63902;52.000;5.954;2022-11-21T01:24:00;100225.38;;;0.70;100.00
67931;BME280;63902;52.000;5.954;2022-11-21T01:25:02;100221.03;;;0.70;100.00
67931;BME280;63902;52.000;5.954;2022-11-21T01:26:03;100227.16;;;0.68;100.00
67931;BME280;63902;52.000;5.954;2022-11-21T01:27:04;100214.97;;;0.66;100.00
67931;BME280;63902;52.000;5.954;2022-11-21T01:28:04;100225.41;;;0.66;100.00
67931;BME280;63902;52.000;5.954;2022-11-21T01:29:06;100225.41;;;0.68;100.00
67931;BME280;63902;52.000;5.954;2022-11-21T01:30:07;100221.09;;;0.62;100.00
67931;BME280;63902;52.000;5.954;2022-11-21T01:31:09;100227.97;;;0.70;100.00
67931;BME280;63902;52.000;5.954;2022-11-21T01:32:10;100228.88;;;0.69;100.00
67931;BME280;63902;52.000;5.954;2022-11-21T01:33:11;100217.56;;;0.68;100.00
67931;BME280;63902;52.000;5.954;2022-11-21T01:34:11;100221.91;;;0.69;100.00
67931;BME280;63902;52.000;5.954;2022-11-21T01:35:11;100215.81;;;0.69;100.00
67931;BME280;63902;52.000;5.954;2022-11-21T01:36:13;100213.22;;;0.67;100.00
67931;BME280;63902;52.000;5.954;2022-11-21T01:37:14;100221.03;;;0.67;100.00
67931;BME280;63902;52.000;5.954;2022-11-21T01:38:14;100222.78;;;0.68;100.00
67931;BME280;63902;52.000;5.954;2022-11-21T01:39:15;100224.53;;;0.68;100.00
67931;BME280;63902;52.000;5.954;2022-11-21T01:40:15;100228.00;;;0.68;100.00
67931;BME280;63902;52.000;5.954;2022-11-21T01:41:19;100217.56;;;0.68;100.00
67931;BME280;63902;52.000;5.954;2022-11-21T01:42:20;100223.66;;;0.69;100.00
67931;BME280;63902;52.000;5.954;2022-11-21T01:43:20;100217.56;;;0.68;100.00
67931;BME280;63902;52.000;5.954;2022-11-21T01:44:24;100218.44;;;0.67;100.00
67931;BME280;63902;52.000;5.954;2022-11-21T01:45:52;100227.13;;;0.69;100.00
67931;BME280;63902;52.000;5.954;2022-11-21T01:46:53;100214.94;;;0.70;100.00
67931;BME280;63902;52.000;5.954;2022-11-21T01:47:53;100219.25;;;0.72;100.00
67931;BME280;63902;52.000;5.954;2022-11-21T01:48:59;100209.66;;;0.73;100.00
67931;BME280;63902;52.000;5.954;2022-11-21T01:50:02;100221.00;;;0.72;100.00
67931;BME280;63902;52.000;5.954;2022-11-21T01:51:07;100216.69;;;0.71;100.00
67931;BME280;63902;52.000;5.954;2022-11-21T01:52:11;100218.44;;;0.70;100.00
67931;BME280;63902;52.000;5.954;2022-11-21T01:53:13;100214.09;;;0.66;100.00
67931;BME280;63902;52.000;5.954;2022-11-21T01:54:18;100217.56;;;0.66;100.00
67931;BME280;63902;52.000;5.954;2022-11-21T01:55:19;100210.63;;;0.64;100.00
67931;BME280;63902;52.000;5.954;2022-11-21T01:56:20;100212.34;;;0.66;100.00
67931;BME280;63902;52.000;5.954;2022-11-21T01:57:24;100216.72;;;0.68;100.00
67931;BME280;63902;52.000;5.954;2022-11-21T01:58:27;100213.25;;;0.65;100.00
67931;BME280;63902;52.000;5.954;2022-11-21T01:59:32;100218.47;;;0.65;100.00
67931;BME280;63902;52.000;5.954;2022-11-21T02:00:36;100221.97;;;0.64;100.00
67931;BME280;63902;52.000;5.954;2022-11-21T02:01:38;100225.44;;;0.65;100.00
67931;BME280;63902;52.000;5.954;2022-11-21T02:02:42;100220.22;;;0.63;100.00
67931;BME280;63902;52.000;5.954;2022-11-21T02:03:44;100219.34;;;0.61;100.00
67931;BME280;63902;52.000;5.954;2022-11-21T02:04:45;100227.19;;;0.64;100.00
67931;BME280;63902;52.000;5.954;2022-11-21T02:05:46;100216.75;;;0.63;100.00
67931;BME280;63902;52.000;5.954;2022-11-21T02:06:47;100217.59;;;0.65;100.00
67931;BME280;63902;52.000;5.954;2022-11-21T02:07:49;100217.59;;;0.65;100.00
67931;BME280;63902;52.000;5.954;2022-11-21T02:08:52;100208.94;;;0.60;100.00
67931;BME280;63902;52.000;5.954;2022-11-21T02:09:56;100212.38;;;0.65;100.00
67931;BME280;63902;52.000;5.954;2022-11-21T02:11:05;100211.53;;;0.61;100.00
67931;BME280;63902;52.000;5.954;2022-11-21T02:12:12;100205.44;;;0.62;100.00
67931;BME280;63902;52.000;5.954;2022-11-21T02:13:13;100207.16;;;0.63;100.00
67931;BME280;63902;52.000;5.954;2022-11-21T02:14:14;100208.91;;;0.61;100.00
67931;BME280;63902;52.000;5.954;2022-11-21T02:15:17;100211.50;;;0.68;100.00
67931;BME280;63902;52.000;5.954;2022-11-21T02:16:17;100213.22;;;0.69;100.00
67931;BME280;63902;52.000;5.954;2022-11-21T02:17:18;100207.09;;;0.71;100.00
67931;BME280;63902;52.000;5.954;2022-11-21T02:18:18;100218.41;;;0.72;100.00
67931;BME280;63902;52.000;5.954;2022-11-21T02:19:24;100211.41;;;0.74;100.00
67931;BME280;63902;52.000;5.954;2022-11-21T02:20:27;100214.03;;;0.72;100.00
67931;BME280;63902;52.000;5.954;2022-11-21T02:21:38;100205.34;;;0.73;100.00
67931;BME280;63902;52.000;5.954;2022-11-21T02:22:46;100214.03;;;0.74;100.00
67931;BME280;63902;52.000;5.954;2022-11-21T02:23:56;100211.44;;;0.72;100.00
67931;BME280;63902;52.000;5.954;2022-11-21T02:25:04;100214.94;;;0.71;100.00
67931;BME280;63902;52.000;5.954;2022-11-21T02:26:05;100214.06;;;0.71;100.00
67931;BME280;63902;52.000;5.954;2022-11-21T02:27:05;100211.50;;;0.68;100.00
67931;BME280;63902;52.000;5.954;2022-11-21T02:28:08;100222.75;;;0.71;100.00
67931;BME280;63902;52.000;5.954;2022-11-21T02:29:10;100222.75;;;0.71;100.00
67931;BME280;63902;52.000;5.954;2022-11-21T02:30:11;100217.53;;;0.70;100.00
67931;BME280;63902;52.000;5.954;2022-11-21T02:31:12;100225.34;;;0.73;100.00
67931;BME280;63902;52.000;5.954;2022-11-21T02:32:20;100227.09;;;0.74;100.00
67931;BME280;63902;52.000;5.954;2022-11-21T02:33:20;100207.16;;;0.63;100.00
67931;BME280;63902;52.000;5.954;2022-11-21T02:34:21;100232.28;;;0.77;100.00
67931;BME280;63902;52.000;5.954;2022-11-21T02:35:21;100229.66;;;0.77;100.00
67931;BME280;63902;52.000;5.954;2022-11-21T02:36:36;100229.66;;;0.75;100.00
67931;BME280;63902;52.000;5.954;2022-11-21T02:37:38;100219.25;;;0.72;100.00
67931;BME280;63902;52.000;5.954;2022-11-21T02:38:39;100233.16;;;0.76;100.00
67931;BME280;63902;52.000;5.954;2022-11-21T02:39:40;100227.94;;;0.76;100.00
67931;BME280;63902;52.000;5.954;2022-11-21T02:40:47;100227.03;;;0.77;100.00
67931;BME280;63902;52.000;5.954;2022-11-21T02:41:57;100226.16;;;0.78;100.00
67931;BME280;63902;52.000;5.954;2022-11-21T02:43:02;100222.69;;;0.77;100.00
67931;BME280;63902;52.000;5.954;2022-11-21T02:44:08;100218.34;;;0.75;100.00
67931;BME280;63902;52.000;5.954;2022-11-21T02:45:14;100225.34;;;0.76;100.00
67931;BME280;63902;52.000;5.954;2022-11-21T02:46:17;100222.72;;;0.76;100.00
67931;BME280;63902;52.000;5.954;2022-11-21T02:47:18;100230.56;;;0.76;100.00
67931;BME280;63902;52.000;5.954;2022-11-21T02:48:20;100221.88;;;0.74;100.00
67931;BME280;63902;52.000;5.954;2022-11-21T02:49:29;100222.72;;;0.73;100.00
67931;BME280;63902;52.000;5.954;2022-11-21T02:50:32;100220.13;;;0.73;100.00
67931;BME280;63902;52.000;5.954;2022-11-21T02:51:33;100226.19;;;0.76;100.00
67931;BME280;63902;52.000;5.954;2022-11-21T02:52:34;100219.19;;;0.78;100.00
67931;BME280;63902;52.000;5.954;2022-11-21T02:53:34;100219.19;;;0.78;100.00
67931;BME280;63902;52.000;5.954;2022-11-21T02:54:34;100214.00;;;0.75;100.00
67931;BME280;63902;52.000;5.954;2022-11-21T02:55:35;100213.13;;;0.75;100.00
67931;BME280;63902;52.000;5.954;2022-11-21T02:56:37;100206.28;;;0.66;100.00
67931;BME280;63902;52.000;5.954;2022-11-21T02:57:37;100210.56;;;0.73;100.00
67931;BME280;63902;52.000;5.954;2022-11-21T02:58:38;100217.50;;;0.74;100.00
67931;BME280;63902;52.000;5.954;2022-11-21T02:59:38;100215.78;;;0.73;100.00
67931;BME280;63902;52.000;5.954;2022-11-21T03:00:40;100212.31;;;0.71;100.00
67931;BME280;63902;52.000;5.954;2022-11-21T03:01:41;100206.25;;;0.71;100.00
67931;BME280;63902;52.000;5.954;2022-11-21T03:02:41;100204.50;;;0.71;100.00
67931;BME280;63902;52.000;5.954;2022-11-21T03:03:42;100204.44;;;0.73;100.00
67931;BME280;63902;52.000;5.954;2022-11-21T03:04:42;100198.38;;;0.72;100.00
67931;BME280;63902;52.000;5.954;2022-11-21T03:05:43;100199.28;;;0.70;100.00
67931;BME280;63902;52.000;5.954;2022-11-21T03:06:43;100198.38;;;0.74;100.00
67931;BME280;63902;52.000;5.954;2022-11-21T03:07:44;100196.63;;;0.73;100.00
67931;BME280;63902;52.000;5.954;2022-11-21T03:08:45;100199.22;;;0.73;100.00
67931;BME280;63902;52.000;5.954;2022-11-21T03:09:45;100199.28;;;0.70;100.00
67931;BME280;63902;52.000;5.954;2022-11-21T03:10:46;100200.19;;;0.65;100.00
67931;BME280;63902;52.000;5.954;2022-11-21T03:11:49;100209.75;;;0.66;100.00
67931;BME280;63902;52.000;5.954;2022-11-21T03:12:49;100197.59;;;0.64;100.00
67931;BME280;63902;52.000;5.954;2022-11-21T03:13:49;100195.00;;;0.61;100.00
67931;BME280;63902;52.000;5.954;2022-11-21T03:14:50;100195.00;;;0.62;100.00
67931;BME280;63902;52.000;5.954;2022-11-21T03:15:50;100196.75;;;0.62;100.00
67931;BME280;63902;52.000;5.954;2022-11-21T03:16:51;100186.38;;;0.59;100.00
67931;BME280;63902;52.000;5.954;2022-11-21T03:17:51;100191.59;;;0.57;100.00
67931;BME280;63902;52.000;5.954;2022-11-21T03:18:52;100189.88;;;0.56;100.00
67931;BME280;63902;52.000;5.954;2022-11-21T03:19:52;100187.25;;;0.55;100.00
67931;BME280;63902;52.000;5.954;2022-11-21T03:20:52;100196.84;;;0.54;100.00
67931;BME280;63902;52.000;5.954;2022-11-21T03:21:53;100183.78;;;0.54;100.00
67931;BME280;63902;52.000;5.954;2022-11-21T03:22:53;100191.59;;;0.56;100.00
67931;BME280;63902;52.000;5.954;2022-11-21T03:23:54;100187.25;;;0.56;100.00
67931;BME280;63902;52.000;5.954;2022-11-21T03:24:54;100186.38;;;0.57;100.00
67931;BME280;63902;52.000;5.954;2022-11-21T03:25:55;100187.22;;;0.58;100.00
67931;BME280;63902;52.000;5.954;2022-11-21T03:26:56;100182.91;;;0.57;100.00
67931;BME280;63902;52.000;5.954;2022-11-21T03:27:57;100184.66;;;0.56;100.00
67931;BME280;63902;52.000;5.954;2022-11-21T03:28:57;100187.22;;;0.58;100.00
67931;BME280;63902;52.000;5.954;2022-11-21T03:29:58;100189.88;;;0.56;100.00
67931;BME280;63902;52.000;5.954;2022-11-21T03:30:58;100188.06;;;0.60;100.00
67931;BME280;63902;52.000;5.954;2022-11-21T03:31:59;100181.97;;;0.61;100.00
67931;BME280;63902;52.000;5.954;2022-11-21T03:32:59;100172.47;;;0.55;100.00
67931;BME280;63902;52.000;5.954;2022-11-21T03:33:59;100181.97;;;0.61;100.00
67931;BME280;63902;52.000;5.954;2022-11-21T03:35:00;100177.69;;;0.55;100.00
67931;BME280;63902;52.000;5.954;2022-11-21T03:36:00;100179.41;;;0.58;100.00
67931;BME280;63902;52.000;5.954;2022-11-21T03:37:01;100177.69;;;0.57;100.00
67931;BME280;63902;52.000;5.954;2022-11-21T03:38:01;100161.19;;;0.50;100.00
67931;BME280;63902;52.000;5.954;2022-11-21T03:39:03;100170.75;;;0.54;100.00
67931;BME280;63902;52.000;5.954;2022-11-21T03:40:04;100170.75;;;0.54;100.00
67931;BME280;63902;52.000;5.954;2022-11-21T03:41:05;100172.50;;;0.52;100.00
67931;BME280;63902;52.000;5.954;2022-11-21T03:42:07;100172.50;;;0.54;100.00
67931;BME280;63902;52.000;5.954;2022-11-21T03:43:07;100172.50;;;0.54;100.00
67931;BME280;63902;52.000;5.954;2022-11-21T03:44:09;100163.78;;;0.53;100.00
67931;BME280;63902;52.000;5.954;2022-11-21T03:45:10;100162.09;;;0.51;100.00
67931;BME280;63902;52.000;5.954;2022-11-21T03:46:11;100166.38;;;0.53;100.00
67931;BME280;63902;52.000;5.954;2022-11-21T03:47:11;100166.38;;;0.53;100.00
67931;BME280;63902;52.000;5.954;2022-11-21T03:48:11;100156.91;;;0.46;100.00
67931;BME280;63902;52.000;5.954;2022-11-21T03:49:13;100163.81;;;0.50;100.00
67931;BME280;63902;52.000;5.954;2022-11-21T03:50:13;100159.44;;;0.52;100.00
67931;BME280;63902;52.000;5.954;2022-11-21T03:51:14;100170.75;;;0.53;100.00
67931;BME280;63902;52.000;5.954;2022-11-21T03:52:14;100169.00;;;0.56;100.00
67931;BME280;63902;52.000;5.954;2022-11-21T03:53:15;100161.16;;;0.56;100.00
67931;BME280;63902;52.000;5.954;2022-11-21T03:54:15;100167.25;;;0.55;100.00
67931;BME280;63902;52.000;5.954;2022-11-21T03:55:16;100168.13;;;0.53;100.00
67931;BME280;63902;52.000;5.954;2022-11-21T03:56:16;100168.16;;;0.50;100.00
67931;BME280;63902;52.000;5.954;2022-11-21T03:57:18;100172.50;;;0.54;100.00
67931;BME280;63902;52.000;5.954;2022-11-21T03:58:18;100175.09;;;0.52;100.00
67931;BME280;63902;52.000;5.954;2022-11-21T03:59:19;100178.56;;;0.53;100.00
67931;BME280;63902;52.000;5.954;2022-11-21T04:00:19;100182.06;;;0.50;100.00
67931;BME280;63902;52.000;5.954;2022-11-21T04:01:20;100184.69;;;0.50;100.00
67931;BME280;63902;52.000;5.954;2022-11-21T04:02:21;100182.06;;;0.52;100.00
67931;BME280;63902;52.000;5.954;2022-11-21T04:03:21;100177.72;;;0.54;100.00
67931;BME280;63902;52.000;5.954;2022-11-21T04:04:22;100185.50;;;0.55;100.00
67931;BME280;63902;52.000;5.954;2022-11-21T04:05:22;100182.03;;;0.56;100.00
67931;BME280;63902;52.000;5.954;2022-11-21T04:06:23;100179.41;;;0.58;100.00
67931;BME280;63902;52.000;5.954;2022-11-21T04:07:23;100185.47;;;0.58;100.00
67931;BME280;63902;52.000;5.954;2022-11-21T04:08:24;100165.59;;;0.47;100.00
67931;BME280;63902;52.000;5.954;2022-11-21T04:09:25;100184.66;;;0.55;100.00
67931;BME280;63902;52.000;5.954;2022-11-21T04:10:25;100193.38;;;0.54;100.00
67931;BME280;63902;52.000;5.954;2022-11-21T04:11:26;100201.16;;;0.55;100.00
67931;BME280;63902;52.000;5.954;2022-11-21T04:12:27;100200.28;;;0.58;100.00
67931;BME280;63902;52.000;5.954;2022-11-21T04:13:28;100200.28;;;0.59;100.00
67931;BME280;63902;52.000;5.954;2022-11-21T04:14:28;100197.66;;;0.59;100.00
67931;BME280;63902;52.000;5.954;2022-11-21T04:15:29;100190.72;;;0.55;100.00
67931;BME280;63902;52.000;5.954;2022-11-21T04:16:29;100192.44;;;0.59;100.00
67931;BME280;63902;52.000;5.954;2022-11-21T04:17:30;100188.94;;;0.60;100.00
67931;BME280;63902;52.000;5.954;2022-11-21T04:18:30;100182.84;;;0.60;100.00
67931;BME280;63902;52.000;5.954;2022-11-21T04:19:31;100183.72;;;0.60;100.00
67931;BME280;63902;52.000;5.954;2022-11-21T04:20:31;100191.53;;;0.60;100.00
67931;BME280;63902;52.000;5.954;2022-11-21T04:21:32;100185.50;;;0.57;100.00
67931;BME280;63902;52.000;5.954;2022-11-21T04:22:32;100188.13;;;0.55;100.00
67931;BME280;63902;52.000;5.954;2022-11-21T04:23:33;100188.97;;;0.57;100.00
67931;BME280;63902;52.000;5.954;2022-11-21T04:24:33;100193.31;;;0.58;100.00
67931;BME280;63902;52.000;5.954;2022-11-21T04:25:34;100192.44;;;0.59;100.00
67931;BME280;63902;52.000;5.954;2022-11-21T04:26:34;100182.00;;;0.59;100.00
67931;BME280;63902;52.000;5.954;2022-11-21T04:27:36;100187.22;;;0.58;100.00
67931;BME280;63902;52.000;5.954;2022-11-21T04:28:36;100173.38;;;0.51;100.00
67931;BME280;63902;52.000;5.954;2022-11-21T04:29:37;100186.38;;;0.56;100.00
67931;BME280;63902;52.000;5.954;2022-11-21T04:30:37;100188.13;;;0.55;100.00
67931;BME280;63902;52.000;5.954;2022-11-21T04:31:38;100181.16;;;0.56;100.00
67931;BME280;63902;52.000;5.954;2022-11-21T04:32:38;100179.41;;;0.58;100.00
67931;BME280;63902;52.000;5.954;2022-11-21T04:33:39;100182.00;;;0.58;100.00
67931;BME280;63902;52.000;5.954;2022-11-21T04:34:39;100187.19;;;0.61;100.00
67931;BME280;63902;52.000;5.954;2022-11-21T04:35:41;100179.38;;;0.59;100.00
67931;BME280;63902;52.000;5.954;2022-11-21T04:36:42;100175.94;;;0.57;100.00
67931;BME280;63902;52.000;5.954;2022-11-21T04:37:42;100177.63;;;0.58;100.00
67931;BME280;63902;52.000;5.954;2022-11-21T04:38:43;100176.78;;;0.59;100.00
67931;BME280;63902;52.000;5.954;2022-11-21T04:39:43;100172.41;;;0.60;100.00
67931;BME280;63902;52.000;5.954;2022-11-21T04:40:44;100172.41;;;0.60;100.00
67931;BME280;63902;52.000;5.954;2022-11-21T04:41:44;100164.59;;;0.60;100.00
67931;BME280;63902;52.000;5.954;2022-11-21T04:42:47;100167.16;;;0.61;100.00
67931;BME280;63902;52.000;5.954;2022-11-21T04:43:47;100161.13;;;0.59;100.00
67931;BME280;63902;52.000;5.954;2022-11-21T04:44:48;100167.19;;;0.60;100.00
67931;BME280;63902;52.000;5.954;2022-11-21T04:45:48;100162.03;;;0.55;100.00
67931;BME280;63902;52.000;5.954;2022-11-21T04:46:49;100169.81;;;0.58;100.00
67931;BME280;63902;52.000;5.954;2022-11-21T04:47:49;100173.31;;;0.59;100.00
67931;BME280;63902;52.000;5.954;2022-11-21T04:48:49;100175.03;;;0.60;100.00
67931;BME280;63902;52.000;5.954;2022-11-21T04:49:50;100176.75;;;0.61;100.00
67931;BME280;63902;52.000;5.954;2022-11-21T04:50:50;100166.38;;;0.56;100.00
67931;BME280;63902;52.000;5.954;2022-11-21T04:51:51;100171.53;;;0.61;100.00
67931;BME280;63902;52.000;5.954;2022-11-21T04:52:52;100168.94;;;0.59;100.00
67931;BME280;63902;52.000;5.954;2022-11-21T04:53:53;100166.38;;;0.56;100.00
67931;BME280;63902;52.000;5.954;2022-11-21T04:54:54;100173.28;;;0.60;100.00
67931;BME280;63902;52.000;5.954;2022-11-21T04:55:54;100178.53;;;0.59;100.00
67931;BME280;63902;52.000;5.954;2022-11-21T04:56:54;100176.78;;;0.58;100.00
67931;BME280;63902;52.000;5.954;2022-11-21T04:57:57;100175.94;;;0.57;100.00
67931;BME280;63902;52.000;5.954;2022-11-21T04:58:57;100177.63;;;0.60;100.00
67931;BME280;63902;52.000;5.954;2022-11-21T04:59:58;100172.44;;;0.58;100.00
67931;BME280;63902;52.000;5.954;2022-11-21T05:01:04;100164.59;;;0.58;100.00
67931;BME280;63902;52.000;5.954;2022-11-21T05:02:05;100162.03;;;0.55;100.00
67931;BME280;63902;52.000;5.954;2022-11-21T05:03:06;100163.78;;;0.56;100.00
67931;BME280;63902;52.000;5.954;2022-11-21T05:04:06;100155.94;;;0.56;100.00
67931;BME280;63902;52.000;5.954;2022-11-21T05:05:07;100153.34;;;0.55;100.00
67931;BME280;63902;52.000;5.954;2022-11-21T05:06:08;100155.94;;;0.55;100.00
67931;BME280;63902;52.000;5.954;2022-11-21T05:07:08;100154.22;;;0.54;100.00
67931;BME280;63902;52.000;5.954;2022-11-21T05:08:09;100146.44;;;0.51;100.00
67931;BME280;63902;52.000;5.954;2022-11-21T05:09:09;100149.00;;;0.52;100.00
67931;BME280;63902;52.000;5.954;2022-11-21T05:10:10;100145.53;;;0.52;100.00
67931;BME280;63902;52.000;5.954;2022-11-21T05:11:11;100153.34;;;0.53;100.00
67931;BME280;63902;52.000;5.954;2022-11-21T05:12:11;100149.00;;;0.54;100.00
67931;BME280;63902;52.000;5.954;2022-11-21T05:13:13;100150.72;;;0.53;100.00
67931;BME280;63902;52.000;5.954;2022-11-21T05:14:14;100157.72;;;0.51;100.00
67931;BME280;63902;52.000;5.954;2022-11-21T05:15:14;100151.66;;;0.51;100.00
67931;BME280;63902;52.000;5.954;2022-11-21T05:16:15;100149.06;;;0.49;100.00
67931;BME280;63902;52.000;5.954;2022-11-21T05:17:15;100142.97;;;0.47;100.00
67931;BME280;63902;52.000;5.954;2022-11-21T05:18:17;100148.19;;;0.49;100.00
67931;BME280;63902;52.000;5.954;2022-11-21T05:19:17;100145.53;;;0.50;100.00
67931;BME280;63902;52.000;5.954;2022-11-21T05:20:18;100140.31;;;0.52;100.00
67931;BME280;63902;52.000;5.954;2022-11-21T05:21:18;100143.78;;;0.52;100.00